sensor_id;sensor_type;location;lat;lon;timestamp;pressure;altitude;pressure_sealevel;temperature;humidity
39823;BME280;25499;53.958;10.970;2023-02-21T07:32:54;101154.44;;;6.71;100.00
39823;BME280;25499;53.958;10.970;2023-02-21T07:35:21;101159.81;;;6.81;100.00
39823;BME280;25499;53.958;10.970;2023-02-21T07:37:47;101162.03;;;7.08;100.00
39823;BME280;25499;53.958;10.970;2023-02-21T07:40:12;101161.31;;;7.17;100.00
39823;BME280;25499;53.958;10.970;2023-02-21T07:42:40;101158.13;;;7.33;100.00
39823;BME280;25499;53.958;10.970;2023-02-21T07:45:08;101167.84;;;7.46;99.90
39823;BME280;25499;53.958;10.970;2023-02-21T07:47:34;101169.63;;;7.49;98.83
39823;BME280;25499;53.958;10.970;2023-02-21T07:49:59;101166.25;;;7.55;97.99
39823;BME280;25499;53.958;10.970;2023-02-21T07:52:25;101165.47;;;7.62;97.95
39823;BME280;25499;53.958;10.970;2023-02-21T07:54:50;101166.19;;;7.52;97.44
39823;BME280;25499;53.958;10.970;2023-02-21T07:57:16;101171.28;;;7.45;97.16
39823;BME280;25499;53.958;10.970;2023-02-21T07:59:42;101172.06;;;7.41;96.52
39823;BME280;25499;53.958;10.970;2023-02-21T08:02:08;101169.72;;;7.55;96.19
39823;BME280;25499;53.958;10.970;2023-02-21T08:04:35;101170.66;;;7.59;95.59
39823;BME280;25499;53.958;10.970;2023-02-21T08:07:01;101170.78;;;7.68;95.19
39823;BME280;25499;53.958;10.970;2023-02-21T08:09:27;101176.97;;;7.78;95.49
39823;BME280;25499;53.958;10.970;2023-02-21T08:11:53;101186.44;;;7.74;95.44
39823;BME280;25499;53.958;10.970;2023-02-21T08:14:18;101197.78;;;7.84;95.09
39823;BME280;25499;53.958;10.970;2023-02-21T08:16:43;101199.25;;;7.66;95.10
39823;BME280;25499;53.958;10.970;2023-02-21T08:19:09;101202.81;;;7.73;94.82
39823;BME280;25499;53.958;10.970;2023-02-21T08:21:35;101210.84;;;7.90;95.57
39823;BME280;25499;53.958;10.970;2023-02-21T08:24:00;101192.44;;;7.73;94.10
39823;BME280;25499;53.958;10.970;2023-02-21T08:26:26;101203.69;;;7.72;94.17
39823;BME280;25499;53.958;10.970;2023-02-21T08:28:51;101215.94;;;7.85;94.54
39823;BME280;25499;53.958;10.970;2023-02-21T08:31:16;101221.47;;;8.07;94.80
39823;BME280;25499;53.958;10.970;2023-02-21T08:33:43;101231.28;;;8.30;95.07
39823;BME280;25499;53.958;10.970;2023-02-21T08:36:09;101213.31;;;8.42;94.46
39823;BME280;25499;53.958;10.970;2023-02-21T08:38:36;101211.75;;;8.50;93.26
39823;BME280;25499;53.958;10.970;2023-02-21T08:41:02;101201.41;;;8.55;91.99
39823;BME280;25499;53.958;10.970;2023-02-21T08:43:30;101204.81;;;8.51;91.60
39823;BME280;25499;53.958;10.970;2023-02-21T08:45:56;101199.88;;;8.71;90.75
39823;BME280;25499;53.958;10.970;2023-02-21T08:48:21;101226.13;;;8.99;91.50
39823;BME280;25499;53.958;10.970;2023-02-21T08:50:47;101212.06;;;8.78;90.31
39823;BME280;25499;53.958;10.970;2023-02-21T08:53:13;101212.72;;;8.62;89.74
39823;BME280;25499;53.958;10.970;2023-02-21T08:55:39;101213.78;;;8.79;90.04
39823;BME280;25499;53.958;10.970;2023-02-21T08:58:05;101230.97;;;8.68;90.18
39823;BME280;25499;53.958;10.970;2023-02-21T09:00:30;101216.94;;;8.50;89.91
39823;BME280;25499;53.958;10.970;2023-02-21T09:02:57;101215.09;;;8.43;89.84
39823;BME280;25499;53.958;10.970;2023-02-21T09:05:29;101226.25;;;8.39;90.79
39823;BME280;25499;53.958;10.970;2023-02-21T09:07:58;101216.66;;;8.35;90.71
39823;BME280;25499;53.958;10.970;2023-02-21T09:10:30;101218.34;;;8.28;90.58
39823;BME280;25499;53.958;10.970;2023-02-21T09:12:58;101224.50;;;8.39;90.67
39823;BME280;25499;53.958;10.970;2023-02-21T09:15:24;101228.75;;;8.33;90.71
39823;BME280;25499;53.958;10.970;2023-02-21T09:17:49;101242.78;;;8.44;91.41
39823;BME280;25499;53.958;10.970;2023-02-21T09:20:17;101236.03;;;8.55;91.13
39823;BME280;25499;53.958;10.970;2023-02-21T09:22:44;101239.59;;;8.67;90.88
39823;BME280;25499;53.958;10.970;2023-02-21T09:25:10;101253.97;;;9.09;90.66
39823;BME280;25499;53.958;10.970;2023-02-21T09:27:40;101244.59;;;9.23;90.71
39823;BME280;25499;53.958;10.970;2023-02-21T09:30:12;101242.00;;;9.26;90.28
39823;BME280;25499;53.958;10.970;2023-02-21T09:32:39;101242.91;;;9.27;89.92
39823;BME280;25499;53.958;10.970;2023-02-21T09:35:05;101233.16;;;9.07;89.61
39823;BME280;25499;53.958;10.970;2023-02-21T09:37:31;101239.25;;;9.11;89.45
39823;BME280;25499;53.958;10.970;2023-02-21T09:39:57;101219.94;;;8.86;87.85
39823;BME280;25499;53.958;10.970;2023-02-21T09:42:29;101232.06;;;8.87;88.28
39823;BME280;25499;53.958;10.970;2023-02-21T09:44:55;101232.00;;;8.82;89.06
39823;BME280;25499;53.958;10.970;2023-02-21T09:47:32;101238.63;;;8.57;89.58
39823;BME280;25499;53.958;10.970;2023-02-21T09:50:05;101250.88;;;8.66;90.12
39823;BME280;25499;53.958;10.970;2023-02-21T09:52:37;101236.97;;;8.64;89.62
39823;BME280;25499;53.958;10.970;2023-02-21T09:55:07;101244.91;;;8.74;89.86
39823;BME280;25499;53.958;10.970;2023-02-21T09:57:37;101251.84;;;8.77;90.60
39823;BME280;25499;53.958;10.970;2023-02-21T10:00:15;101249.09;;;8.63;90.57
39823;BME280;25499;53.958;10.970;2023-02-21T10:02:54;101255.22;;;8.68;90.70
39823;BME280;25499;53.958;10.970;2023-02-21T10:11:02;101247.53;;;8.79;89.82
39823;BME280;25499;53.958;10.970;2023-02-21T10:16:26;101269.03;;;8.66;90.58
39823;BME280;25499;53.958;10.970;2023-02-21T10:21:40;101271.03;;;8.88;90.10
39823;BME280;25499;53.958;10.970;2023-02-21T10:24:15;101271.97;;;8.95;90.01
39823;BME280;25499;53.958;10.970;2023-02-21T10:26:47;101285.28;;;9.24;90.11
39823;BME280;25499;53.958;10.970;2023-02-21T10:29:23;101266.38;;;9.38;88.86
39823;BME280;25499;53.958;10.970;2023-02-21T10:31:54;101276.53;;;10.06;87.73
39823;BME280;25499;53.958;10.970;2023-02-21T10:34:25;101266.63;;;10.96;85.62
39823;BME280;25499;53.958;10.970;2023-02-21T10:36:55;101232.00;;;11.85;81.49
39823;BME280;25499;53.958;10.970;2023-02-21T10:39:57;101198.03;;;12.26;78.14
39823;BME280;25499;53.958;10.970;2023-02-21T10:42:42;101197.03;;;12.58;75.83
39823;BME280;25499;53.958;10.970;2023-02-21T10:45:10;101190.78;;;12.90;74.93
39823;BME280;25499;53.958;10.970;2023-02-21T10:47:49;101183.16;;;12.48;74.51
39823;BME280;25499;53.958;10.970;2023-02-21T10:50:48;101200.72;;;11.65;75.98
39823;BME280;25499;53.958;10.970;2023-02-21T11:06:45;101229.31;;;11.06;76.65
39823;BME280;25499;53.958;10.970;2023-02-21T11:09:39;101211.03;;;10.92;76.64
39823;BME280;25499;53.958;10.970;2023-02-21T11:12:26;101251.97;;;11.43;77.57
39823;BME280;25499;53.958;10.970;2023-02-21T11:17:25;101264.19;;;12.13;77.60
39823;BME280;25499;53.958;10.970;2023-02-21T11:22:37;101230.78;;;13.03;74.59
39823;BME280;25499;53.958;10.970;2023-02-21T11:27:42;101185.81;;;12.28;72.25
39823;BME280;25499;53.958;10.970;2023-02-21T11:30:15;101178.69;;;12.74;71.92
39823;BME280;25499;53.958;10.970;2023-02-21T11:32:48;101198.06;;;12.14;72.77
39823;BME280;25499;53.958;10.970;2023-02-21T11:35:36;101197.16;;;12.20;72.80
39823;BME280;25499;53.958;10.970;2023-02-21T11:38:06;101175.44;;;12.10;72.17
39823;BME280;25499;53.958;10.970;2023-02-21T11:40:43;101198.91;;;12.16;72.85
39823;BME280;25499;53.958;10.970;2023-02-21T11:46:17;101229.34;;;12.36;73.84
39823;BME280;25499;53.958;10.970;2023-02-21T11:49:10;101183.25;;;12.24;72.09
39823;BME280;25499;53.958;10.970;2023-02-21T11:51:46;101168.50;;;12.09;71.18
39823;BME280;25499;53.958;10.970;2023-02-21T11:54:14;101155.50;;;11.76;71.25
39823;BME280;25499;53.958;10.970;2023-02-21T11:56:47;101157.22;;;11.44;71.80
39823;BME280;25499;53.958;10.970;2023-02-21T12:07:51;101228.47;;;11.19;75.23
39823;BME280;25499;53.958;10.970;2023-02-21T12:10:42;101217.94;;;10.78;74.74
39823;BME280;25499;53.958;10.970;2023-02-21T12:34:57;101239.66;;;9.51;78.56
39823;BME280;25499;53.958;10.970;2023-02-21T12:40:20;101258.50;;;9.31;80.24
39823;BME280;25499;53.958;10.970;2023-02-21T12:43:01;101267.28;;;9.41;80.80
39823;BME280;25499;53.958;10.970;2023-02-21T12:48:11;101259.44;;;9.37;80.80
39823;BME280;25499;53.958;10.970;2023-02-21T12:50:45;101259.38;;;9.29;80.41
39823;BME280;25499;53.958;10.970;2023-02-21T12:53:15;101260.94;;;9.16;80.93
39823;BME280;25499;53.958;10.970;2023-02-21T12:55:45;101267.94;;;9.20;81.49
39823;BME280;25499;53.958;10.970;2023-02-21T12:58:30;101253.13;;;9.11;81.04
39823;BME280;25499;53.958;10.970;2023-02-21T13:01:00;101247.84;;;9.04;80.86
39823;BME280;25499;53.958;10.970;2023-02-21T13:14:38;101261.63;;;8.98;81.27
39823;BME280;25499;53.958;10.970;2023-02-21T13:17:09;101273.03;;;9.11;81.83
39823;BME280;25499;53.958;10.970;2023-02-21T13:19:52;101276.44;;;9.05;81.95
39823;BME280;25499;53.958;10.970;2023-02-21T13:28:34;101252.91;;;8.93;81.42
39823;BME280;25499;53.958;10.970;2023-02-21T13:31:17;101262.50;;;8.99;81.40
39823;BME280;25499;53.958;10.970;2023-02-21T13:33:48;101242.44;;;8.85;80.62
39823;BME280;25499;53.958;10.970;2023-02-21T13:36:25;101266.84;;;9.00;81.33
39823;BME280;25499;53.958;10.970;2023-02-21T13:39:04;101255.59;;;9.01;81.09
39823;BME280;25499;53.958;10.970;2023-02-21T13:41:38;101260.06;;;9.12;81.44
39823;BME280;25499;53.958;10.970;2023-02-21T13:44:10;101256.56;;;9.09;81.32
39823;BME280;25499;53.958;10.970;2023-02-21T13:57:51;101264.03;;;8.81;82.33
39823;BME280;25499;53.958;10.970;2023-02-21T14:08:30;101260.38;;;8.67;82.52
39823;BME280;25499;53.958;10.970;2023-02-21T14:24:00;101265.56;;;8.67;82.71
39823;BME280;25499;53.958;10.970;2023-02-21T14:26:45;101255.13;;;8.64;82.41
39823;BME280;25499;53.958;10.970;2023-02-21T14:37:00;101244.13;;;8.82;81.31
39823;BME280;25499;53.958;10.970;2023-02-21T14:39:36;101224.88;;;8.64;80.79
39823;BME280;25499;53.958;10.970;2023-02-21T14:42:38;101232.81;;;8.76;80.56
39823;BME280;25499;53.958;10.970;2023-02-21T14:56:48;101253.06;;;9.07;80.40
39823;BME280;25499;53.958;10.970;2023-02-21T15:07:57;101219.28;;;9.04;78.67
39823;BME280;25499;53.958;10.970;2023-02-21T15:10:28;101228.88;;;9.11;78.59
39823;BME280;25499;53.958;10.970;2023-02-21T15:12:55;101241.97;;;9.22;79.03
39823;BME280;25499;53.958;10.970;2023-02-21T15:18:01;101208.03;;;9.03;77.65
39823;BME280;25499;53.958;10.970;2023-02-21T15:20:27;101217.66;;;9.15;77.92
39823;BME280;25499;53.958;10.970;2023-02-21T15:23:08;101197.63;;;9.02;76.97
39823;BME280;25499;53.958;10.970;2023-02-21T15:25:35;101194.13;;;9.01;76.63
39823;BME280;25499;53.958;10.970;2023-02-21T15:28:03;101188.19;;;9.11;76.23
39823;BME280;25499;53.958;10.970;2023-02-21T15:30:33;101190.63;;;8.98;76.03
39823;BME280;25499;53.958;10.970;2023-02-21T15:35:33;101199.88;;;8.74;76.88
39823;BME280;25499;53.958;10.970;2023-02-21T15:38:02;101192.97;;;8.73;76.55
39823;BME280;25499;53.958;10.970;2023-02-21T15:40:30;101195.47;;;8.67;77.01
39823;BME280;25499;53.958;10.970;2023-02-21T15:42:55;101206.59;;;8.56;77.31
39823;BME280;25499;53.958;10.970;2023-02-21T15:45:29;101230.81;;;8.54;78.37
39823;BME280;25499;53.958;10.970;2023-02-21T15:47:57;101227.31;;;8.53;78.32
39823;BME280;25499;53.958;10.970;2023-02-21T15:52:49;101243.66;;;8.45;79.37
39823;BME280;25499;53.958;10.970;2023-02-21T16:00:40;101246.78;;;8.24;79.83
39823;BME280;25499;53.958;10.970;2023-02-21T16:03:32;101256.44;;;8.34;80.16
39823;BME280;25499;53.958;10.970;2023-02-21T16:08:56;101256.91;;;8.07;80.64
39823;BME280;25499;53.958;10.970;2023-02-21T16:11:46;101247.28;;;7.98;81.10
39823;BME280;25499;53.958;10.970;2023-02-21T16:14:39;101256.75;;;7.97;81.64
39823;BME280;25499;53.958;10.970;2023-02-21T16:19:49;101269.91;;;8.08;81.97
39823;BME280;25499;53.958;10.970;2023-02-21T16:27:38;101274.69;;;7.83;82.34
39823;BME280;25499;53.958;10.970;2023-02-21T16:30:04;101282.50;;;7.85;82.77
39823;BME280;25499;53.958;10.970;2023-02-21T16:32:31;101279.81;;;7.80;82.40
39823;BME280;25499;53.958;10.970;2023-02-21T16:34:57;101273.88;;;7.86;82.29
39823;BME280;25499;53.958;10.970;2023-02-21T16:37:23;101265.91;;;7.75;81.82
39823;BME280;25499;53.958;10.970;2023-02-21T16:39:48;101253.66;;;7.66;81.46
39823;BME280;25499;53.958;10.970;2023-02-21T16:42:14;101263.13;;;7.63;81.24
39823;BME280;25499;53.958;10.970;2023-02-21T16:44:43;101261.09;;;7.46;81.22
39823;BME280;25499;53.958;10.970;2023-02-21T16:47:16;101262.69;;;7.40;81.90
39823;BME280;25499;53.958;10.970;2023-02-21T16:49:43;101272.81;;;7.26;82.35
39823;BME280;25499;53.958;10.970;2023-02-21T16:52:16;101273.53;;;7.19;82.58
39823;BME280;25499;53.958;10.970;2023-02-21T16:54:42;101271.84;;;7.21;82.48
39823;BME280;25499;53.958;10.970;2023-02-21T16:57:09;101270.47;;;6.94;82.50
39823;BME280;25499;53.958;10.970;2023-02-21T16:59:34;101279.81;;;6.86;82.70
39823;BME280;25499;53.958;10.970;2023-02-21T17:02:00;101285.47;;;6.68;82.97
39823;BME280;25499;53.958;10.970;2023-02-21T17:04:26;101292.19;;;6.60;83.26
39823;BME280;25499;53.958;10.970;2023-02-21T17:07:00;101305.38;;;6.70;83.97
39823;BME280;25499;53.958;10.970;2023-02-21T17:09:28;101304.47;;;6.70;84.03
39823;BME280;25499;53.958;10.970;2023-02-21T17:11:54;101301.44;;;6.50;83.85
39823;BME280;25499;53.958;10.970;2023-02-21T17:14:21;101303.88;;;6.42;83.74
39823;BME280;25499;53.958;10.970;2023-02-21T17:16:47;101310.16;;;6.53;84.10
39823;BME280;25499;53.958;10.970;2023-02-21T17:19:14;101312.78;;;6.57;84.25
39823;BME280;25499;53.958;10.970;2023-02-21T17:21:40;101317.03;;;6.53;84.39
39823;BME280;25499;53.958;10.970;2023-02-21T17:24:07;101320.03;;;6.33;84.29
39823;BME280;25499;53.958;10.970;2023-02-21T17:26:32;101327.84;;;6.35;84.78
39823;BME280;25499;53.958;10.970;2023-02-21T17:28:58;101326.91;;;6.31;85.40
39823;BME280;25499;53.958;10.970;2023-02-21T17:31:23;101342.63;;;6.41;85.71
39823;BME280;25499;53.958;10.970;2023-02-21T17:33:49;101338.03;;;6.29;85.73
39823;BME280;25499;53.958;10.970;2023-02-21T17:36:17;101350.84;;;6.24;85.93
39823;BME280;25499;53.958;10.970;2023-02-21T17:38:42;101350.56;;;6.12;86.08
39823;BME280;25499;53.958;10.970;2023-02-21T17:41:08;101352.59;;;6.25;86.16
39823;BME280;25499;53.958;10.970;2023-02-21T17:43:33;101351.66;;;6.22;86.30
39823;BME280;25499;53.958;10.970;2023-02-21T17:45:59;101340.34;;;6.16;85.68
39823;BME280;25499;53.958;10.970;2023-02-21T17:48:24;101341.63;;;6.01;86.00
39823;BME280;25499;53.958;10.970;2023-02-21T17:50:50;101339.16;;;5.72;85.95
39823;BME280;25499;53.958;10.970;2023-02-21T17:53:16;101344.31;;;5.72;86.24
39823;BME280;25499;53.958;10.970;2023-02-21T17:55:42;101352.75;;;5.65;86.31
39823;BME280;25499;53.958;10.970;2023-02-21T17:58:07;101351.69;;;5.58;86.82
39823;BME280;25499;53.958;10.970;2023-02-21T18:00:34;101365.25;;;5.49;86.98
39823;BME280;25499;53.958;10.970;2023-02-21T18:03:01;101363.50;;;5.48;87.03
39823;BME280;25499;53.958;10.970;2023-02-21T18:05:31;101351.91;;;5.34;86.79
39823;BME280;25499;53.958;10.970;2023-02-21T18:07:57;101359.22;;;5.18;87.11
39823;BME280;25499;53.958;10.970;2023-02-21T18:10:24;101366.97;;;5.18;87.06
39823;BME280;25499;53.958;10.970;2023-02-21T18:12:52;101367.69;;;5.13;87.11
39823;BME280;25499;53.958;10.970;2023-02-21T18:15:22;101377.19;;;5.15;87.46
39823;BME280;25499;53.958;10.970;2023-02-21T18:17:49;101378.78;;;5.10;87.54
39823;BME280;25499;53.958;10.970;2023-02-21T18:20:15;101383.03;;;5.08;87.70
39823;BME280;25499;53.958;10.970;2023-02-21T18:22:41;101392.13;;;4.97;88.08
39823;BME280;25499;53.958;10.970;2023-02-21T18:25:07;101393.91;;;4.98;88.28
39823;BME280;25499;53.958;10.970;2023-02-21T18:27:35;101388.44;;;4.89;88.06
39823;BME280;25499;53.958;10.970;2023-02-21T18:30:01;101391.78;;;4.84;88.09
39823;BME280;25499;53.958;10.970;2023-02-21T18:32:27;101400.63;;;4.93;88.17
39823;BME280;25499;53.958;10.970;2023-02-21T18:34:53;101401.59;;;4.96;88.20
39823;BME280;25499;53.958;10.970;2023-02-21T18:37:20;101415.59;;;5.04;88.82
39823;BME280;25499;53.958;10.970;2023-02-21T18:39:50;101418.34;;;5.09;88.67
39823;BME280;25499;53.958;10.970;2023-02-21T18:42:15;101418.41;;;5.12;88.78
39823;BME280;25499;53.958;10.970;2023-02-21T18:44:42;101416.72;;;5.13;88.98
39823;BME280;25499;53.958;10.970;2023-02-21T18:47:08;101420.41;;;5.22;89.27
39823;BME280;25499;53.958;10.970;2023-02-21T18:49:35;101415.25;;;5.22;89.17
39823;BME280;25499;53.958;10.970;2023-02-21T18:52:04;101409.22;;;5.22;88.76
39823;BME280;25499;53.958;10.970;2023-02-21T18:54:31;101406.16;;;5.05;88.11
39823;BME280;25499;53.958;10.970;2023-02-21T18:56:57;101404.59;;;5.10;87.99
39823;BME280;25499;53.958;10.970;2023-02-21T18:59:23;101403.91;;;4.89;88.11
39823;BME280;25499;53.958;10.970;2023-02-21T19:01:51;101405.47;;;4.83;88.32
39823;BME280;25499;53.958;10.970;2023-02-21T19:04:17;101410.47;;;4.77;88.64
39823;BME280;25499;53.958;10.970;2023-02-21T19:06:43;101413.88;;;4.76;88.99
39823;BME280;25499;53.958;10.970;2023-02-21T19:09:09;101408.59;;;4.73;88.66
39823;BME280;25499;53.958;10.970;2023-02-21T19:11:35;101411.44;;;4.54;88.51
39823;BME280;25499;53.958;10.970;2023-02-21T19:14:00;101416.03;;;4.62;88.99
39823;BME280;25499;53.958;10.970;2023-02-21T19:16:26;101415.22;;;4.65;89.34
39823;BME280;25499;53.958;10.970;2023-02-21T19:18:58;101424.44;;;4.57;90.08
39823;BME280;25499;53.958;10.970;2023-02-21T19:21:24;101419.88;;;4.49;90.13
39823;BME280;25499;53.958;10.970;2023-02-21T19:23:50;101425.94;;;4.50;90.32
39823;BME280;25499;53.958;10.970;2023-02-21T19:26:16;101418.78;;;4.41;90.58
39823;BME280;25499;53.958;10.970;2023-02-21T19:28:42;101422.03;;;4.36;90.61
39823;BME280;25499;53.958;10.970;2023-02-21T19:31:08;101420.41;;;4.39;90.86
39823;BME280;25499;53.958;10.970;2023-02-21T19:33:35;101438.00;;;4.51;91.67
39823;BME280;25499;53.958;10.970;2023-02-21T19:36:03;101439.03;;;4.56;91.66
39823;BME280;25499;53.958;10.970;2023-02-21T19:38:28;101438.91;;;4.52;91.31
39823;BME280;25499;53.958;10.970;2023-02-21T19:40:55;101438.00;;;4.51;91.63
39823;BME280;25499;53.958;10.970;2023-02-21T19:43:20;101446.75;;;4.56;91.69
39823;BME280;25499;53.958;10.970;2023-02-21T19:45:46;101451.16;;;4.59;92.45
39823;BME280;25499;53.958;10.970;2023-02-21T19:48:11;101455.44;;;4.58;92.50
39823;BME280;25499;53.958;10.970;2023-02-21T19:50:37;101452.69;;;4.54;91.88
39823;BME280;25499;53.958;10.970;2023-02-21T19:53:03;101440.44;;;4.46;91.08
39823;BME280;25499;53.958;10.970;2023-02-21T19:55:29;101442.28;;;4.51;91.17
39823;BME280;25499;53.958;10.970;2023-02-21T19:57:54;101451.03;;;4.56;91.40
39823;BME280;25499;53.958;10.970;2023-02-21T20:00:21;101437.28;;;4.55;91.68
39823;BME280;25499;53.958;10.970;2023-02-21T20:02:48;101441.53;;;4.53;91.94
39823;BME280;25499;53.958;10.970;2023-02-21T20:05:15;101447.22;;;4.44;91.98
39823;BME280;25499;53.958;10.970;2023-02-21T20:07:41;101451.78;;;4.52;92.06
39823;BME280;25499;53.958;10.970;2023-02-21T20:10:09;101460.38;;;4.52;92.06
39823;BME280;25499;53.958;10.970;2023-02-21T20:12:34;101457.69;;;4.49;92.46
39823;BME280;25499;53.958;10.970;2023-02-21T20:15:00;101453.00;;;4.37;92.45
39823;BME280;25499;53.958;10.970;2023-02-21T20:17:25;101448.91;;;3.92;92.07
39823;BME280;25499;53.958;10.970;2023-02-21T20:19:51;101449.47;;;3.84;92.35
39823;BME280;25499;53.958;10.970;2023-02-21T20:22:16;101450.94;;;3.77;92.30
39823;BME280;25499;53.958;10.970;2023-02-21T20:24:43;101447.81;;;3.62;92.77
39823;BME280;25499;53.958;10.970;2023-02-21T20:27:13;101452.41;;;3.46;93.09
39823;BME280;25499;53.958;10.970;2023-02-21T20:29:38;101450.13;;;3.31;93.45
39823;BME280;25499;53.958;10.970;2023-02-21T20:32:04;101459.66;;;3.34;93.74
39823;BME280;25499;53.958;10.970;2023-02-21T20:34:32;101466.97;;;3.23;94.35
39823;BME280;25499;53.958;10.970;2023-02-21T20:36:57;101466.25;;;3.27;94.87
39823;BME280;25499;53.958;10.970;2023-02-21T20:39:26;101474.69;;;3.23;95.38
39823;BME280;25499;53.958;10.970;2023-02-21T20:41:57;101476.53;;;3.27;96.11
39823;BME280;25499;53.958;10.970;2023-02-21T20:44:25;101475.03;;;3.32;96.59
39823;BME280;25499;53.958;10.970;2023-02-21T20:46:52;101482.53;;;3.49;96.96
39823;BME280;25499;53.958;10.970;2023-02-21T20:49:18;101490.56;;;3.81;97.54
39823;BME280;25499;53.958;10.970;2023-02-21T20:51:46;101488.34;;;3.67;97.40
39823;BME280;25499;53.958;10.970;2023-02-21T20:54:17;101489.22;;;3.68;97.31
39823;BME280;25499;53.958;10.970;2023-02-21T20:56:48;101490.53;;;3.57;97.26
39823;BME280;25499;53.958;10.970;2023-02-21T20:59:24;101492.94;;;3.52;97.58
39823;BME280;25499;53.958;10.970;2023-02-21T21:01:50;101480.22;;;3.34;97.50
